Time;durP1;ratioP1;P1;durP2;ratioP2;P2;SDS_P1;SDS_P2;PMS_P1;PMS_P2;Temp;Humidity;BMP_temperature;BMP_pressure;BME280_temperature;BME280_humidity;BME280_pressure;Samples;Min_cycle;Max_cycle;Signal;HPM_P1;HPM_P2
2022/05/25 00:01:00;;;;;;;1.00;0.60;;;;;;;;;;5015977;28;20038;-75
2022/05/25 00:03:28;;;;;;;2.60;0.75;;;;;;;;;;5015798;28;20072;-75
2022/05/25 00:05:54;;;;;;;0.98;0.82;;;;;;;;;;5015512;28;20117;-75
2022/05/25 00:08:20;;;;;;;1.85;0.90;;;;;;;;;;5015450;28;20057;-75
2022/05/25 00:10:47;;;;;;;1.83;0.85;;;;;;;;;;5015623;28;20033;-75
2022/05/25 00:13:13;;;;;;;0.93;0.73;;;;;;;;;;5015529;28;20046;-75
2022/05/25 00:15:39;;;;;;;2.97;0.80;;;;;;;;;;5015442;28;20659;-74
2022/05/25 00:18:05;;;;;;;3.08;0.95;;;;;;;;;;5015216;28;20493;-74
2022/05/25 00:20:31;;;;;;;3.97;1.00;;;;;;;;;;5015752;28;20045;-75
2022/05/25 00:22:58;;;;;;;1.67;1.00;;;;;;;;;;5015156;28;20505;-75
2022/05/25 00:25:27;;;;;;;2.25;0.90;;;;;;;;;;5015614;28;20049;-74
2022/05/25 00:27:54;;;;;;;2.45;1.00;;;;;;;;;;5015265;28;20034;-74
2022/05/25 00:30:20;;;;;;;1.48;0.80;;;;;;;;;;5015316;28;20096;-75
2022/05/25 00:32:46;;;;;;;1.73;1.08;;;;;;;;;;5015302;28;20121;-75
2022/05/25 00:35:14;;;;;;;3.25;0.80;;;;;;;;;;5014729;28;20382;-75
2022/05/25 00:37:41;;;;;;;3.00;1.30;;;;;;;;;;5015218;28;20118;-75
2022/05/25 00:40:08;;;;;;;2.67;1.00;;;;;;;;;;5015432;28;20033;-75
2022/05/25 00:42:38;;;;;;;1.27;0.90;;;;;;;;;;5014855;28;20038;-75
2022/05/25 00:45:05;;;;;;;1.10;1.00;;;;;;;;;;5015522;28;20042;-75
2022/05/25 00:47:32;;;;;;;2.75;1.10;;;;;;;;;;5014762;28;20046;-75
2022/05/25 00:49:59;;;;;;;2.88;0.80;;;;;;;;;;5015394;28;20462;-74
2022/05/25 00:52:25;;;;;;;2.42;0.90;;;;;;;;;;5015247;28;20042;-74
2022/05/25 00:54:56;;;;;;;3.08;1.02;;;;;;;;;;5015117;28;20053;-74
2022/05/25 00:57:23;;;;;;;0.80;0.80;;;;;;;;;;5014921;28;20046;-75
2022/05/25 00:59:52;;;;;;;2.17;0.88;;;;;;;;;;5014902;28;20038;-74
2022/05/25 01:02:19;;;;;;;1.98;0.70;;;;;;;;;;5014826;28;20113;-75
2022/05/25 01:04:47;;;;;;;2.22;0.80;;;;;;;;;;5014707;28;20493;-75
2022/05/25 01:07:22;;;;;;;2.42;0.90;;;;;;;;;;5014494;28;20057;-74
2022/05/25 01:09:54;;;;;;;1.75;0.70;;;;;;;;;;5015109;28;20042;-75
2022/05/25 01:12:23;;;;;;;1.33;0.70;;;;;;;;;;5014814;28;20108;-74
2022/05/25 01:15:08;;;;;;;2.55;0.85;;;;;;;;;;5014992;28;20054;-74
2022/05/25 01:17:53;;;;;;;1.48;0.80;;;;;;;;;;5016070;28;20037;-75
2022/05/25 01:20:24;;;;;;;1.42;0.75;;;;;;;;;;5021867;28;20034;-75
2022/05/25 01:22:53;;;;;;;1.02;0.88;;;;;;;;;;5021815;28;20469;-74
2022/05/25 01:25:39;;;;;;;1.35;0.70;;;;;;;;;;5021495;28;20050;-74
2022/05/25 01:28:20;;;;;;;3.08;0.80;;;;;;;;;;5021372;28;20048;-74
2022/05/25 01:30:49;;;;;;;2.33;1.00;;;;;;;;;;5021163;28;20045;-74
2022/05/25 01:33:18;;;;;;;1.65;0.80;;;;;;;;;;5021316;28;20049;-75
2022/05/25 01:35:48;;;;;;;4.97;1.08;;;;;;;;;;5021407;28;20037;-74
2022/05/25 01:38:33;;;;;;;3.15;1.10;;;;;;;;;;5021919;28;20041;-75
2022/05/25 01:41:15;;;;;;;2.20;0.95;;;;;;;;;;5021323;28;20132;-74
2022/05/25 01:43:41;;;;;;;1.83;0.80;;;;;;;;;;5021814;28;20057;-75
2022/05/25 01:46:34;;;;;;;2.15;0.80;;;;;;;;;;5021460;28;20049;-74
2022/05/25 01:49:03;;;;;;;2.67;0.93;;;;;;;;;;5018473;28;20042;-75
2022/05/25 01:51:35;;;;;;;1.33;0.77;;;;;;;;;;5021053;28;20046;-74
2022/05/25 01:54:04;;;;;;;1.63;0.80;;;;;;;;;;5021108;28;20049;-74
2022/05/25 01:56:31;;;;;;;3.20;0.70;;;;;;;;;;5020770;28;20045;-75
2022/05/25 01:58:59;;;;;;;0.93;0.70;;;;;;;;;;5021397;28;20042;-75
2022/05/25 02:01:25;;;;;;;2.35;0.68;;;;;;;;;;5021115;28;20038;-74
2022/05/25 02:06:55;;;;;;;2.88;1.05;;;;;;;;;;5020558;28;20094;-75
2022/05/25 02:09:39;;;;;;;1.30;0.60;;;;;;;;;;5020883;28;20049;-75
2022/05/25 02:12:13;;;;;;;2.95;0.93;;;;;;;;;;5020986;28;20040;-75
2022/05/25 02:14:59;;;;;;;3.33;0.70;;;;;;;;;;5021104;28;20053;-74
2022/05/25 02:17:25;;;;;;;1.75;0.70;;;;;;;;;;5020735;28;20045;-74
2022/05/25 02:19:57;;;;;;;0.43;0.43;;;;;;;;;;5021071;28;20480;-74
2022/05/25 02:22:29;;;;;;;4.10;0.75;;;;;;;;;;5020663;28;20034;-75
2022/05/25 02:24:57;;;;;;;2.13;0.80;;;;;;;;;;5021270;28;20061;-75
2022/05/25 02:27:45;;;;;;;1.90;0.70;;;;;;;;;;5020619;28;20037;-75
2022/05/25 02:30:16;;;;;;;1.73;0.70;;;;;;;;;;5018567;28;20081;-74
2022/05/25 02:32:48;;;;;;;1.35;0.60;;;;;;;;;;5017506;28;20042;-74
2022/05/25 02:35:15;;;;;;;2.58;0.88;;;;;;;;;;5018005;28;20079;-74
2022/05/25 02:37:43;;;;;;;1.75;0.70;;;;;;;;;;5017957;28;20050;-74
2022/05/25 02:40:10;;;;;;;3.38;0.77;;;;;;;;;;5017289;28;20433;-75
2022/05/25 02:42:40;;;;;;;0.70;0.50;;;;;;;;;;5017626;28;20041;-74
2022/05/25 02:45:07;;;;;;;2.33;0.70;;;;;;;;;;5018182;28;20104;-75
2022/05/25 02:47:33;;;;;;;1.73;0.70;;;;;;;;;;5017200;28;20432;-74
2022/05/25 02:49:59;;;;;;;1.40;0.63;;;;;;;;;;5017490;28;20038;-74
2022/05/25 02:52:27;;;;;;;1.77;0.47;;;;;;;;;;5017423;28;20184;-74
2022/05/25 02:54:53;;;;;;;2.83;0.60;;;;;;;;;;5017924;28;20054;-75
2022/05/25 02:57:19;;;;;;;2.03;0.70;;;;;;;;;;5017804;28;20033;-75
2022/05/25 02:59:46;;;;;;;1.85;0.75;;;;;;;;;;5016986;28;20053;-74
2022/05/25 03:02:13;;;;;;;2.50;0.80;;;;;;;;;;5017289;28;20108;-75
2022/05/25 03:04:40;;;;;;;1.25;0.60;;;;;;;;;;5017207;28;20515;-74
2022/05/25 03:07:06;;;;;;;2.15;0.98;;;;;;;;;;5016314;28;20049;-74
2022/05/25 03:09:34;;;;;;;1.27;0.60;;;;;;;;;;5016813;28;20034;-74
2022/05/25 03:12:02;;;;;;;2.10;0.60;;;;;;;;;;5016801;28;20049;-75
2022/05/25 03:14:29;;;;;;;2.13;0.80;;;;;;;;;;5016334;28;20119;-74
2022/05/25 03:16:55;;;;;;;1.65;0.60;;;;;;;;;;5016795;28;20034;-74
2022/05/25 03:19:22;;;;;;;1.45;0.90;;;;;;;;;;5016620;28;20045;-74
2022/05/25 03:21:48;;;;;;;1.00;0.60;;;;;;;;;;5016454;28;20069;-75
2022/05/25 03:24:14;;;;;;;2.53;0.80;;;;;;;;;;5016535;28;20061;-75
2022/05/25 03:26:40;;;;;;;3.85;1.08;;;;;;;;;;5016163;28;20469;-74
2022/05/25 03:29:07;;;;;;;1.42;0.68;;;;;;;;;;5016181;28;20068;-74
2022/05/25 03:31:34;;;;;;;0.80;0.57;;;;;;;;;;5016407;28;20536;-75
2022/05/25 03:34:00;;;;;;;2.30;0.60;;;;;;;;;;5016194;28;20099;-75
2022/05/25 03:36:26;;;;;;;1.58;0.70;;;;;;;;;;5016440;28;20117;-75
2022/05/25 03:38:52;;;;;;;1.55;0.60;;;;;;;;;;5016190;28;20034;-75
2022/05/25 03:41:20;;;;;;;1.55;0.80;;;;;;;;;;5015680;28;20038;-74
2022/05/25 03:43:47;;;;;;;0.55;0.55;;;;;;;;;;5016084;28;20045;-75
2022/05/25 03:48:49;;;;;;;0.90;0.65;;;;;;;;;;5332377;23;19944;-75
2022/05/25 03:51:16;;;;;;;1.42;0.60;;;;;;;;;;5034165;28;20091;-75
2022/05/25 03:53:42;;;;;;;1.20;0.88;;;;;;;;;;5034564;28;20499;-74
2022/05/25 03:56:08;;;;;;;2.65;0.80;;;;;;;;;;5034801;28;20042;-75
2022/05/25 03:58:34;;;;;;;1.63;0.90;;;;;;;;;;5034439;28;20041;-75
2022/05/25 04:01:01;;;;;;;2.72;0.80;;;;;;;;;;5034775;28;20042;-74
2022/05/25 04:03:27;;;;;;;2.03;0.70;;;;;;;;;;5034203;28;20049;-74
2022/05/25 04:05:53;;;;;;;1.38;0.70;;;;;;;;;;5034358;28;20099;-75
2022/05/25 04:08:19;;;;;;;0.75;0.60;;;;;;;;;;5034355;28;20038;-74
2022/05/25 04:10:46;;;;;;;1.40;0.60;;;;;;;;;;5034574;28;20167;-75
2022/05/25 04:13:12;;;;;;;2.05;0.70;;;;;;;;;;5034275;28;20056;-75
2022/05/25 04:15:38;;;;;;;2.78;0.70;;;;;;;;;;5034125;28;20164;-75
2022/05/25 04:18:04;;;;;;;0.63;0.50;;;;;;;;;;5034343;28;20056;-75
2022/05/25 04:20:32;;;;;;;2.25;0.70;;;;;;;;;;5034055;28;20046;-74
2022/05/25 04:22:59;;;;;;;3.40;0.98;;;;;;;;;;5034317;28;20116;-74
2022/05/25 04:25:25;;;;;;;2.83;0.80;;;;;;;;;;5034221;28;20037;-74
2022/05/25 04:27:53;;;;;;;1.60;0.88;;;;;;;;;;5034436;28;20077;-74
2022/05/25 04:30:21;;;;;;;0.88;0.60;;;;;;;;;;5033922;28;20519;-74
2022/05/25 04:32:47;;;;;;;1.80;0.57;;;;;;;;;;5033930;28;20042;-74
2022/05/25 04:35:14;;;;;;;1.38;0.68;;;;;;;;;;5033718;28;20535;-74
2022/05/25 04:37:49;;;;;;;2.83;0.55;;;;;;;;;;5034218;28;20044;-74
2022/05/25 04:40:16;;;;;;;1.10;0.65;;;;;;;;;;5033393;28;20037;-75
2022/05/25 04:42:43;;;;;;;1.15;0.60;;;;;;;;;;5033997;28;20050;-74
2022/05/25 04:45:10;;;;;;;2.15;0.80;;;;;;;;;;5033989;28;20076;-75
2022/05/25 04:47:37;;;;;;;2.55;0.70;;;;;;;;;;5033454;28;20140;-74
2022/05/25 04:50:06;;;;;;;4.40;0.57;;;;;;;;;;5032949;28;20033;-74
2022/05/25 04:52:33;;;;;;;1.83;0.70;;;;;;;;;;5032959;28;20042;-74
2022/05/25 04:54:59;;;;;;;3.88;0.77;;;;;;;;;;5033376;28;20187;-74
2022/05/25 04:57:27;;;;;;;1.73;0.60;;;;;;;;;;5033627;28;20178;-74
2022/05/25 05:00:01;;;;;;;1.15;0.50;;;;;;;;;;5033324;28;20037;-74
2022/05/25 05:02:30;;;;;;;3.13;0.50;;;;;;;;;;5033309;28;20049;-74
2022/05/25 05:04:57;;;;;;;2.17;0.70;;;;;;;;;;5033131;28;20037;-74
2022/05/25 05:07:34;;;;;;;2.47;0.77;;;;;;;;;;5033510;28;20045;-75
2022/05/25 05:10:01;;;;;;;2.88;0.73;;;;;;;;;;5033216;28;20504;-74
2022/05/25 05:12:30;;;;;;;0.50;0.50;;;;;;;;;;5033308;28;20518;-74
2022/05/25 05:15:00;;;;;;;3.05;0.50;;;;;;;;;;5033130;28;20103;-74
2022/05/25 05:17:26;;;;;;;2.70;0.85;;;;;;;;;;5033207;28;20050;-75
2022/05/25 05:19:52;;;;;;;0.98;0.50;;;;;;;;;;5033195;28;20068;-74
2022/05/25 05:22:18;;;;;;;2.80;0.68;;;;;;;;;;5032192;28;20091;-74
2022/05/25 05:24:45;;;;;;;1.23;0.45;;;;;;;;;;5033197;28;20099;-74
2022/05/25 05:27:11;;;;;;;1.80;0.60;;;;;;;;;;5033311;28;20487;-74
2022/05/25 05:29:37;;;;;;;1.42;0.57;;;;;;;;;;5032862;28;20041;-74
2022/05/25 05:32:03;;;;;;;2.70;0.60;;;;;;;;;;5032981;28;20045;-74
2022/05/25 05:34:30;;;;;;;0.93;0.40;;;;;;;;;;5030351;28;20049;-74
2022/05/25 05:37:03;;;;;;;1.40;0.50;;;;;;;;;;5021378;28;20056;-74
2022/05/25 05:39:31;;;;;;;0.95;0.50;;;;;;;;;;5021018;28;20061;-75
2022/05/25 05:42:04;;;;;;;1.85;0.60;;;;;;;;;;5019420;28;20078;-75
2022/05/25 05:44:33;;;;;;;0.80;0.40;;;;;;;;;;5023094;28;20090;-75
2022/05/25 05:47:00;;;;;;;1.23;0.43;;;;;;;;;;5021364;28;20046;-75
2022/05/25 05:49:26;;;;;;;1.50;0.65;;;;;;;;;;5026514;28;20088;-75
2022/05/25 05:51:52;;;;;;;1.67;0.70;;;;;;;;;;5032621;28;20080;-75
2022/05/25 05:54:19;;;;;;;0.70;0.60;;;;;;;;;;5032561;28;20088;-72
2022/05/25 05:56:45;;;;;;;2.17;0.70;;;;;;;;;;5033072;28;20041;-75
2022/05/25 05:59:11;;;;;;;0.90;0.50;;;;;;;;;;5032957;28;20052;-75
2022/05/25 06:01:38;;;;;;;1.13;0.60;;;;;;;;;;5025736;28;20491;-75
2022/05/25 06:04:05;;;;;;;1.05;0.47;;;;;;;;;;5016602;28;20046;-75
2022/05/25 06:06:31;;;;;;;1.65;0.52;;;;;;;;;;5015827;28;20060;-75
2022/05/25 06:08:58;;;;;;;1.95;0.60;;;;;;;;;;5025217;28;20512;-74
2022/05/25 06:11:24;;;;;;;2.78;0.40;;;;;;;;;;5025126;28;20049;-74
2022/05/25 06:13:50;;;;;;;2.28;0.60;;;;;;;;;;5022166;28;20084;-74
2022/05/25 06:21:46;;;;;;;2.17;0.60;;;;;;;;;;5031819;28;20083;-74
2022/05/25 06:24:12;;;;;;;1.50;0.95;;;;;;;;;;5034708;28;20076;-74
2022/05/25 06:26:38;;;;;;;1.35;0.57;;;;;;;;;;5034556;28;20481;-74
2022/05/25 06:29:05;;;;;;;6.07;0.60;;;;;;;;;;5035910;28;20041;-74
2022/05/25 06:31:31;;;;;;;1.45;0.75;;;;;;;;;;5036201;28;20049;-74
2022/05/25 06:33:58;;;;;;;1.58;0.40;;;;;;;;;;5035807;28;20049;-74
2022/05/25 06:36:26;;;;;;;1.90;0.70;;;;;;;;;;5029247;28;20064;-75
2022/05/25 06:38:52;;;;;;;14.63;1.20;;;;;;;;;;5022419;28;20508;-74
2022/05/25 06:41:18;;;;;;;44.22;3.33;;;;;;;;;;5023444;28;20045;-76
2022/05/25 06:43:44;;;;;;;9.55;1.20;;;;;;;;;;5026169;28;20128;-74
2022/05/25 06:46:12;;;;;;;1.73;0.50;;;;;;;;;;5027746;28;20034;-74
2022/05/25 06:48:39;;;;;;;3.97;0.70;;;;;;;;;;5018743;28;20527;-74
2022/05/25 06:51:15;;;;;;;3.05;0.60;;;;;;;;;;5022029;28;20484;-74
2022/05/25 06:53:41;;;;;;;0.75;0.47;;;;;;;;;;5027468;28;20056;-74
2022/05/25 06:56:08;;;;;;;2.55;0.50;;;;;;;;;;5024300;28;20040;-74
2022/05/25 06:58:34;;;;;;;2.20;0.60;;;;;;;;;;5026758;28;20033;-74
2022/05/25 07:01:01;;;;;;;1.95;0.50;;;;;;;;;;5019686;28;20041;-75
2022/05/25 07:03:27;;;;;;;1.23;0.45;;;;;;;;;;5016379;28;20049;-75
2022/05/25 07:05:53;;;;;;;4.45;0.60;;;;;;;;;;5021081;28;20046;-74
2022/05/25 07:08:20;;;;;;;1.38;0.50;;;;;;;;;;5020427;28;20105;-74
2022/05/25 07:10:46;;;;;;;3.22;0.50;;;;;;;;;;5027294;28;20038;-73
2022/05/25 07:13:13;;;;;;;1.63;0.70;;;;;;;;;;5024804;28;20065;-73
2022/05/25 07:15:39;;;;;;;2.25;0.60;;;;;;;;;;5028163;28;20045;-73
2022/05/25 07:18:05;;;;;;;2.45;0.60;;;;;;;;;;5033354;28;20045;-73
2022/05/25 07:20:31;;;;;;;2.90;0.73;;;;;;;;;;5051426;28;20131;-75
2022/05/25 07:22:57;;;;;;;2.42;0.60;;;;;;;;;;5030634;28;20125;-73
2022/05/25 07:25:24;;;;;;;2.15;0.70;;;;;;;;;;5024509;28;20056;-73
2022/05/25 07:27:50;;;;;;;2.55;0.75;;;;;;;;;;5016481;28;20497;-73
2022/05/25 07:30:16;;;;;;;4.07;0.70;;;;;;;;;;5024749;28;20041;-73
2022/05/25 07:32:43;;;;;;;0.50;0.50;;;;;;;;;;5025311;28;20187;-73
2022/05/25 07:35:11;;;;;;;2.58;0.60;;;;;;;;;;5015432;28;20162;-73
2022/05/25 07:37:40;;;;;;;2.63;0.70;;;;;;;;;;5023430;28;20045;-74
2022/05/25 07:40:09;;;;;;;5.35;0.95;;;;;;;;;;5023580;28;20034;-74
2022/05/25 07:42:35;;;;;;;4.97;0.70;;;;;;;;;;5015183;28;20107;-74
2022/05/25 07:45:03;;;;;;;2.58;0.70;;;;;;;;;;5014538;28;20038;-75
2022/05/25 07:47:31;;;;;;;1.48;0.68;;;;;;;;;;5031749;28;20050;-75
2022/05/25 07:49:57;;;;;;;2.67;1.40;;;;;;;;;;5029034;28;20038;-75
2022/05/25 07:52:25;;;;;;;3.28;0.90;;;;;;;;;;5026028;28;20111;-75
2022/05/25 07:54:51;;;;;;;4.03;0.82;;;;;;;;;;5014528;28;20631;-74
2022/05/25 07:57:18;;;;;;;1.98;0.40;;;;;;;;;;5014168;28;20049;-74
2022/05/25 07:59:44;;;;;;;1.50;0.70;;;;;;;;;;5014646;28;20520;-75
2022/05/25 08:07:48;;;;;;;2.22;0.55;;;;;;;;;;5014094;28;20404;-73
2022/05/25 08:10:18;;;;;;;1.63;0.75;;;;;;;;;;4983162;28;20431;-71
2022/05/25 08:12:45;;;;;;;3.47;0.95;;;;;;;;;;4938168;28;20129;-71
2022/05/25 08:15:12;;;;;;;2.15;0.70;;;;;;;;;;4947161;29;20047;-71
2022/05/25 08:17:39;;;;;;;4.18;0.52;;;;;;;;;;4944361;29;20054;-71
2022/05/25 08:20:06;;;;;;;3.20;0.73;;;;;;;;;;4942266;29;20043;-70
2022/05/25 08:22:33;;;;;;;1.27;0.50;;;;;;;;;;4950230;29;20043;-71
2022/05/25 08:24:59;;;;;;;1.13;0.55;;;;;;;;;;4945256;29;20058;-70
2022/05/25 08:27:26;;;;;;;2.80;0.68;;;;;;;;;;4943206;29;20047;-71
2022/05/25 08:29:52;;;;;;;3.28;0.50;;;;;;;;;;4944931;29;20133;-70
2022/05/25 08:32:18;;;;;;;1.95;0.65;;;;;;;;;;4950725;28;20491;-71
2022/05/25 08:34:44;;;;;;;2.88;0.80;;;;;;;;;;4937415;29;20134;-69
2022/05/25 08:37:11;;;;;;;3.67;0.90;;;;;;;;;;4937780;29;20036;-70
2022/05/25 08:39:37;;;;;;;1.50;0.57;;;;;;;;;;4950513;29;20046;-74
2022/05/25 08:42:05;;;;;;;11.57;1.58;;;;;;;;;;4956342;28;20043;-75
2022/05/25 08:44:32;;;;;;;3.50;0.88;;;;;;;;;;4956549;29;20051;-75
2022/05/25 08:46:59;;;;;;;3.58;0.80;;;;;;;;;;4956975;29;20039;-75
2022/05/25 08:49:26;;;;;;;5.18;0.50;;;;;;;;;;4957191;29;20066;-75
2022/05/25 08:51:57;;;;;;;1.55;0.95;;;;;;;;;;4957193;29;20035;-75
2022/05/25 08:54:24;;;;;;;1.33;0.47;;;;;;;;;;4956946;29;20138;-75
2022/05/25 08:56:56;;;;;;;4.18;0.98;;;;;;;;;;4957252;29;20070;-75
2022/05/25 08:59:25;;;;;;;2.28;0.70;;;;;;;;;;4956943;29;20127;-75
2022/05/25 09:01:51;;;;;;;1.73;0.52;;;;;;;;;;4956303;29;20050;-75
2022/05/25 09:04:33;;;;;;;3.30;0.68;;;;;;;;;;4956803;28;20046;-75
2022/05/25 09:07:18;;;;;;;1.42;0.57;;;;;;;;;;4956866;29;20044;-75
2022/05/25 09:09:45;;;;;;;2.55;0.45;;;;;;;;;;4956801;29;20038;-75
2022/05/25 09:12:11;;;;;;;0.98;0.40;;;;;;;;;;4956742;29;20498;-75
2022/05/25 09:14:42;;;;;;;1.52;0.52;;;;;;;;;;4956584;29;20043;-75
2022/05/25 09:17:08;;;;;;;;;;;;;;;;;;4956873;29;20562;-75
2022/05/25 09:19:39;;;;;;;3.53;0.60;;;;;;;;;;4956428;29;19946;-75
2022/05/25 09:22:08;;;;;;;6.13;0.98;;;;;;;;;;4956781;29;20039;-76
2022/05/25 09:24:35;;;;;;;5.47;0.63;;;;;;;;;;4956494;29;20494;-76
2022/05/25 09:27:02;;;;;;;3.20;0.60;;;;;;;;;;4957004;29;20047;-76
2022/05/25 09:29:29;;;;;;;1.52;0.55;;;;;;;;;;4956853;28;20043;-76
2022/05/25 09:32:12;;;;;;;1.05;0.50;;;;;;;;;;4956914;29;20500;-75
2022/05/25 09:34:41;;;;;;;1.95;0.60;;;;;;;;;;4957079;29;20102;-75
2022/05/25 09:37:22;;;;;;;2.58;0.52;;;;;;;;;;4956758;29;20043;-75
2022/05/25 09:39:51;;;;;;;3.33;0.50;;;;;;;;;;4957596;28;20043;-76
2022/05/25 09:42:19;;;;;;;3.00;0.50;;;;;;;;;;4960362;28;20562;-76
2022/05/25 09:44:49;;;;;;;1.50;0.60;;;;;;;;;;4954323;29;20053;-75
2022/05/25 09:47:20;;;;;;;8.38;0.85;;;;;;;;;;4959370;29;20109;-75
2022/05/25 09:49:47;;;;;;;;;;;;;;;;;;4959291;29;20130;-76
2022/05/25 09:52:20;;;;;;;1.55;0.55;;;;;;;;;;4956310;28;19942;-76
2022/05/25 09:54:49;;;;;;;2.03;0.73;;;;;;;;;;4948680;29;20454;-75
2022/05/25 09:57:27;;;;;;;3.55;0.60;;;;;;;;;;4945661;29;20044;-75
2022/05/25 10:00:00;;;;;;;2.08;0.60;;;;;;;;;;4946407;29;20070;-75
2022/05/25 10:02:26;;;;;;;2.15;0.60;;;;;;;;;;4944089;29;20043;-75
2022/05/25 10:04:56;;;;;;;3.85;0.70;;;;;;;;;;4949571;28;20503;-76
2022/05/25 10:07:29;;;;;;;1.02;0.45;;;;;;;;;;4946622;29;20050;-76
2022/05/25 10:09:58;;;;;;;3.38;0.60;;;;;;;;;;4959038;29;20058;-75
2022/05/25 10:12:35;;;;;;;2.10;0.40;;;;;;;;;;4958039;29;20650;-75
2022/05/25 10:15:03;;;;;;;2.67;0.40;;;;;;;;;;4957389;29;20062;-75
2022/05/25 10:17:32;;;;;;;2.08;0.50;;;;;;;;;;4957258;29;20058;-75
2022/05/25 10:19:59;;;;;;;2.60;0.68;;;;;;;;;;4946974;28;20050;-75
2022/05/25 10:22:41;;;;;;;4.47;0.40;;;;;;;;;;4958896;29;20145;-75
2022/05/25 10:25:20;;;;;;;2.78;0.60;;;;;;;;;;4946717;29;20055;-75
2022/05/25 10:27:47;;;;;;;2.53;0.70;;;;;;;;;;4956157;29;20043;-75
2022/05/25 10:39:17;;;;;;;2.88;0.65;;;;;;;;;;4949295;29;20054;-75
2022/05/25 10:41:45;;;;;;;2.58;0.60;;;;;;;;;;4924549;29;20429;-75
2022/05/25 10:44:22;;;;;;;2.55;0.52;;;;;;;;;;4941816;29;20051;-76
2022/05/25 10:46:55;;;;;;;2.13;0.75;;;;;;;;;;4945612;29;20074;-75
2022/05/25 10:49:32;;;;;;;1.60;0.57;;;;;;;;;;4948992;29;20051;-75
2022/05/25 10:52:05;;;;;;;2.15;0.30;;;;;;;;;;4952320;28;20123;-75
2022/05/25 10:54:45;;;;;;;2.33;0.68;;;;;;;;;;4946018;29;20082;-76
2022/05/25 10:57:14;;;;;;;0.63;0.35;;;;;;;;;;4945228;28;20043;-77
2022/05/25 10:59:57;;;;;;;6.05;0.60;;;;;;;;;;4956687;29;20568;-77
2022/05/25 11:02:36;;;;;;;3.60;0.70;;;;;;;;;;4957308;29;20384;-75
2022/05/25 11:05:02;;;;;;;1.75;0.52;;;;;;;;;;4958438;29;20051;-75
2022/05/25 11:07:32;;;;;;;5.75;0.90;;;;;;;;;;4958470;29;20051;-75
2022/05/25 11:09:58;;;;;;;1.80;0.65;;;;;;;;;;4957644;29;20043;-75
2022/05/25 11:12:40;;;;;;;1.35;0.40;;;;;;;;;;4957752;29;20043;-75
2022/05/25 11:15:13;;;;;;;1.75;0.50;;;;;;;;;;4958015;29;20098;-74
2022/05/25 11:18:08;;;;;;;2.80;0.77;;;;;;;;;;4956548;29;20047;-75
2022/05/25 11:20:53;;;;;;;0.60;0.30;;;;;;;;;;4941595;29;20576;-75
2022/05/25 11:23:31;;;;;;;3.45;0.63;;;;;;;;;;4957519;29;20035;-74
2022/05/25 11:26:16;;;;;;;1.73;0.40;;;;;;;;;;4957862;29;20035;-74
2022/05/25 11:29:00;;;;;;;5.40;0.55;;;;;;;;;;4957434;29;20050;-74
2022/05/25 11:31:45;;;;;;;2.10;0.70;;;;;;;;;;4956120;29;20107;-74
2022/05/25 11:34:17;;;;;;;4.47;0.50;;;;;;;;;;4954148;29;20138;-75
2022/05/25 11:36:55;;;;;;;2.15;0.40;;;;;;;;;;4957765;29;20047;-75
2022/05/25 11:39:24;;;;;;;2.22;0.73;;;;;;;;;;4956708;29;20054;-75
2022/05/25 11:42:12;;;;;;;2.42;0.65;;;;;;;;;;4956383;29;20460;-75
2022/05/25 11:44:59;;;;;;;1.23;0.40;;;;;;;;;;4955673;29;20055;-74
2022/05/25 11:47:40;;;;;;;1.83;0.40;;;;;;;;;;4955593;29;20502;-74
2022/05/25 11:50:09;;;;;;;6.90;0.40;;;;;;;;;;4956244;29;20082;-74
2022/05/25 11:52:50;;;;;;;2.15;0.32;;;;;;;;;;4957161;29;20050;-74
2022/05/25 11:55:22;;;;;;;8.85;0.88;;;;;;;;;;4957222;29;20122;-75
2022/05/25 11:57:54;;;;;;;5.53;0.50;;;;;;;;;;4957399;29;20051;-75
2022/05/25 12:00:26;;;;;;;0.82;0.50;;;;;;;;;;4957881;29;20032;-75
2022/05/25 12:03:00;;;;;;;1.42;0.50;;;;;;;;;;4957302;28;20044;-75
2022/05/25 12:05:32;;;;;;;1.15;0.35;;;;;;;;;;4957790;29;20043;-77
2022/05/25 12:08:03;;;;;;;1.20;0.50;;;;;;;;;;4954161;29;20059;-74
2022/05/25 12:10:41;;;;;;;0.77;0.47;;;;;;;;;;4956463;29;20050;-74
2022/05/25 12:13:26;;;;;;;2.25;0.47;;;;;;;;;;4956274;29;20402;-74
2022/05/25 12:15:52;;;;;;;1.60;0.30;;;;;;;;;;4956567;29;20133;-74
2022/05/25 12:18:37;;;;;;;2.60;0.68;;;;;;;;;;4956756;29;20510;-74
2022/05/25 12:21:21;;;;;;;3.20;0.70;;;;;;;;;;4956550;29;20039;-74
2022/05/25 12:23:50;;;;;;;1.83;0.75;;;;;;;;;;4956649;29;20035;-74
2022/05/25 12:26:22;;;;;;;2.28;0.40;;;;;;;;;;4956063;29;20126;-73
2022/05/25 12:28:48;;;;;;;1.00;0.45;;;;;;;;;;4956477;29;20078;-74
2022/05/25 12:31:21;;;;;;;3.05;0.50;;;;;;;;;;4956470;29;20079;-74
2022/05/25 12:33:48;;;;;;;1.30;0.52;;;;;;;;;;4956294;29;20043;-74
2022/05/25 12:36:16;;;;;;;1.85;0.38;;;;;;;;;;4956741;29;20047;-74
2022/05/25 12:38:43;;;;;;;3.33;0.73;;;;;;;;;;4956558;29;20038;-74
2022/05/25 12:41:26;;;;;;;3.85;0.80;;;;;;;;;;4956959;29;20043;-74
2022/05/25 12:43:57;;;;;;;3.58;0.70;;;;;;;;;;4939997;29;20422;-74
2022/05/25 12:49:33;;;;;;;1.33;0.50;;;;;;;;;;4957166;29;20440;-74
2022/05/25 12:51:59;;;;;;;1.13;0.47;;;;;;;;;;4956812;29;20565;-74
2022/05/25 12:54:28;;;;;;;4.70;0.75;;;;;;;;;;4956235;29;20063;-73
2022/05/25 12:56:55;;;;;;;2.95;0.68;;;;;;;;;;4953194;29;20035;-73
2022/05/25 12:59:27;;;;;;;5.13;0.60;;;;;;;;;;4954933;29;20035;-74
2022/05/25 13:02:05;;;;;;;3.70;0.57;;;;;;;;;;4956638;28;20082;-74
2022/05/25 13:04:51;;;;;;;1.20;0.30;;;;;;;;;;4955671;29;20047;-74
2022/05/25 13:07:36;;;;;;;4.25;0.60;;;;;;;;;;4956229;29;20116;-71
2022/05/25 13:10:23;;;;;;;5.13;1.00;;;;;;;;;;4956552;29;20042;-74
2022/05/25 13:12:56;;;;;;;1.83;0.40;;;;;;;;;;4956355;29;20039;-74
2022/05/25 13:15:22;;;;;;;2.63;0.60;;;;;;;;;;4938644;29;20445;-74
2022/05/25 13:17:50;;;;;;;2.75;0.60;;;;;;;;;;4955945;29;20106;-74
2022/05/25 13:20:47;;;;;;;3.33;0.50;;;;;;;;;;4956334;29;20082;-74
2022/05/25 13:23:33;;;;;;;2.13;0.55;;;;;;;;;;4947927;29;20046;-74
2022/05/25 13:26:02;;;;;;;18.38;1.77;;;;;;;;;;4956181;29;20067;-74
2022/05/25 13:28:34;;;;;;;3.78;0.88;;;;;;;;;;4956083;29;20431;-74
2022/05/25 13:31:19;;;;;;;2.45;0.50;;;;;;;;;;4956194;29;20506;-74
2022/05/25 13:33:46;;;;;;;3.00;0.50;;;;;;;;;;4955961;29;20043;-74
2022/05/25 13:36:17;;;;;;;3.25;0.47;;;;;;;;;;4955832;29;20050;-74
2022/05/25 13:38:49;;;;;;;2.08;0.60;;;;;;;;;;4956256;29;20055;-72
2022/05/25 13:41:23;;;;;;;2.22;0.60;;;;;;;;;;4956478;29;20039;-72
2022/05/25 13:43:52;;;;;;;0.93;0.50;;;;;;;;;;4956469;29;20047;-72
2022/05/25 13:46:30;;;;;;;5.53;0.73;;;;;;;;;;4956434;29;20035;-72
2022/05/25 13:48:57;;;;;;;5.15;0.45;;;;;;;;;;4955919;28;20052;-72
2022/05/25 13:51:24;;;;;;;1.60;0.50;;;;;;;;;;4955837;29;20043;-72
2022/05/25 13:53:53;;;;;;;0.85;0.35;;;;;;;;;;4955741;28;20085;-72
2022/05/25 13:56:22;;;;;;;4.47;0.52;;;;;;;;;;4956108;28;20043;-72
2022/05/25 13:58:51;;;;;;;0.60;0.30;;;;;;;;;;4956260;29;20057;-72
2022/05/25 14:01:22;;;;;;;1.25;0.40;;;;;;;;;;4956070;29;20043;-72
2022/05/25 14:03:51;;;;;;;2.10;0.68;;;;;;;;;;4955892;29;20078;-73
2022/05/25 14:06:18;;;;;;;3.10;0.50;;;;;;;;;;4956001;28;20066;-72
2022/05/25 14:11:35;;;;;;;1.40;0.40;;;;;;;;;;4955464;29;20122;-72
2022/05/25 14:14:01;;;;;;;4.72;0.90;;;;;;;;;;4955571;28;20129;-73
2022/05/25 14:16:29;;;;;;;2.70;0.50;;;;;;;;;;4955975;29;20099;-73
2022/05/25 14:19:05;;;;;;;0.73;0.30;;;;;;;;;;4955592;29;20039;-72
2022/05/25 14:21:33;;;;;;;2.67;0.50;;;;;;;;;;4956418;29;20150;-74
2022/05/25 14:24:00;;;;;;;0.77;0.47;;;;;;;;;;4955839;29;20050;-74
2022/05/25 14:26:29;;;;;;;3.03;0.65;;;;;;;;;;4957778;28;20106;-74
2022/05/25 14:28:55;;;;;;;3.78;0.70;;;;;;;;;;4959411;29;20050;-74
2022/05/25 14:31:22;;;;;;;3.30;0.60;;;;;;;;;;4959165;29;20046;-74
2022/05/25 14:33:49;;;;;;;1.95;0.45;;;;;;;;;;4959057;28;20035;-74
2022/05/25 14:36:18;;;;;;;3.22;0.50;;;;;;;;;;4955094;29;20079;-75
2022/05/25 14:38:45;;;;;;;1.63;0.45;;;;;;;;;;4957761;29;20065;-74
2022/05/25 14:41:24;;;;;;;2.47;0.68;;;;;;;;;;4958340;28;20043;-74
2022/05/25 14:43:51;;;;;;;3.95;0.57;;;;;;;;;;4957638;28;20066;-74
2022/05/25 14:46:23;;;;;;;9.68;0.65;;;;;;;;;;4958425;28;20498;-74
2022/05/25 14:48:53;;;;;;;1.52;0.45;;;;;;;;;;4957293;29;20159;-74
2022/05/25 14:51:21;;;;;;;1.50;0.50;;;;;;;;;;4958110;29;20502;-74
2022/05/25 14:53:48;;;;;;;3.00;0.50;;;;;;;;;;4958091;29;20066;-74
2022/05/25 14:56:33;;;;;;;2.45;0.50;;;;;;;;;;4957398;28;20043;-74
2022/05/25 14:58:59;;;;;;;1.95;0.52;;;;;;;;;;4958119;29;20051;-73
2022/05/25 15:01:28;;;;;;;2.35;0.50;;;;;;;;;;4958085;29;20046;-73
2022/05/25 15:03:57;;;;;;;2.78;0.70;;;;;;;;;;4957057;29;20484;-73
2022/05/25 15:06:25;;;;;;;4.45;0.88;;;;;;;;;;4957516;28;20043;-73
2022/05/25 15:08:54;;;;;;;1.95;0.60;;;;;;;;;;4957693;29;20051;-73
2022/05/25 15:11:31;;;;;;;3.17;0.80;;;;;;;;;;4958018;28;20031;-73
2022/05/25 15:20:09;;;;;;;4.65;1.00;;;;;;;;;;4956562;29;20041;-74
2022/05/25 15:22:37;;;;;;;5.88;0.93;;;;;;;;;;4956951;29;20038;-74
2022/05/25 15:25:06;;;;;;;3.78;0.70;;;;;;;;;;4957570;29;20600;-73
2022/05/25 15:27:34;;;;;;;2.15;0.90;;;;;;;;;;4958304;29;20035;-73
2022/05/25 15:30:01;;;;;;;1.40;0.70;;;;;;;;;;4957857;29;20046;-73
2022/05/25 15:32:27;;;;;;;3.22;1.55;;;;;;;;;;4957518;29;20035;-73
2022/05/25 15:34:53;;;;;;;3.45;0.80;;;;;;;;;;4956989;29;20133;-73
2022/05/25 15:37:21;;;;;;;1.40;0.70;;;;;;;;;;4957008;28;20043;-73